Terminal Aerodrome Forecast
Issued by NWS

Home | Current Version | Previous Version | Text Only | Print | Product List | Glossary On
Versions: 1 2 3 4 5 6 7 8 9 10 11 12 13 14 15 16 17 18 19 20 21 22 23 24 25 26 27 28 29 30
000
FTUS41 KBUF 012323
TAFJHW
TAF
KJHW 012323Z 0200/0224 36007KT 6SM -DZ BR OVC006
     FM020300 02006KT P6SM OVC008
     FM021500 03010KT P6SM OVC012
     FM021800 04011KT P6SM OVC025
     FM022000 04009KT P6SM BKN035
      AMD LTD TO CLD VIS AND WIND=

USA.gov is the U.S. government's official web portal to all federal, state and local government web resources and services.